Time;durP1;ratioP1;P1;durP2;ratioP2;P2;SDS_P1;SDS_P2;PMS_P1;PMS_P2;Temp;Humidity;BMP_temperature;BMP_pressure;BME280_temperature;BME280_humidity;BME280_pressure;Samples;Min_cycle;Max_cycle;Signal;HPM_P1;HPM_P2
2022/07/05 00:02:59;;;;;;;2.83;1.00;;;;;;;15.70;67.41;101064.50;5110978;28;20088;-76
2022/07/05 00:06:03;;;;;;;3.17;0.80;;;;;;;15.58;67.71;101066.94;5111029;28;20173;-76
2022/07/05 00:09:06;;;;;;;3.88;1.02;;;;;;;15.61;67.63;101070.31;5094458;28;20069;-76
2022/07/05 00:12:09;;;;;;;4.85;1.35;;;;;;;15.62;67.41;101067.56;5091452;28;20405;-76
2022/07/05 00:15:14;;;;;;;2.42;0.90;;;;;;;15.47;68.10;101076.47;5091724;28;20117;-76
2022/07/05 00:18:17;;;;;;;2.75;0.70;;;;;;;15.53;67.80;101068.16;5091859;28;20055;-76
2022/07/05 00:21:20;;;;;;;3.00;0.85;;;;;;;15.55;67.35;101072.41;5090847;28;20074;-76
2022/07/05 00:24:25;;;;;;;5.45;1.33;;;;;;;15.47;67.34;101068.56;5090421;28;20035;-76
2022/07/05 00:27:30;;;;;;;2.53;0.75;;;;;;;15.35;67.69;101067.56;5094567;28;20085;-77
2022/07/05 00:30:35;;;;;;;3.67;0.93;;;;;;;15.19;68.15;101072.97;5111521;28;20046;-77
2022/07/05 00:33:39;;;;;;;4.15;0.80;;;;;;;15.23;68.27;101079.72;5090842;28;20108;-77
2022/07/05 00:36:43;;;;;;;3.35;0.80;;;;;;;15.26;68.98;101076.91;5089847;28;20059;-76
2022/07/05 00:39:46;;;;;;;2.28;0.77;;;;;;;15.27;68.95;101072.47;5090886;28;20519;-76
2022/07/05 00:42:49;;;;;;;2.88;0.80;;;;;;;15.37;68.44;101073.56;5102009;28;20042;-76
2022/07/05 00:45:53;;;;;;;3.05;0.95;;;;;;;15.17;68.76;101076.63;5110771;28;20101;-76
2022/07/05 00:48:58;;;;;;;2.70;0.77;;;;;;;15.32;68.48;101070.41;5110852;28;20070;-76
2022/07/05 00:52:02;;;;;;;3.08;0.82;;;;;;;15.61;67.36;101080.88;5110777;28;20096;-76
2022/07/05 00:55:11;;;;;;;3.30;1.00;;;;;;;15.29;68.08;101078.50;5107464;28;20587;-76
2022/07/05 00:58:15;;;;;;;3.97;1.48;;;;;;;14.91;69.15;101079.09;5089352;28;20132;-77
2022/07/05 01:01:19;;;;;;;3.92;1.08;;;;;;;14.86;69.22;101078.53;5090311;28;20046;-76
2022/07/05 01:04:23;;;;;;;3.30;0.77;;;;;;;14.71;69.76;101076.81;5089970;28;20528;-76
2022/07/05 01:07:26;;;;;;;4.28;1.23;;;;;;;14.79;69.46;101074.59;5089504;28;20420;-76
2022/07/05 01:10:31;;;;;;;4.97;0.80;;;;;;;14.79;69.91;101082.47;5095048;28;20038;-76
2022/07/05 01:13:36;;;;;;;5.72;0.95;;;;;;;14.74;70.16;101082.78;5109000;28;20039;-76
2022/07/05 01:16:40;;;;;;;4.72;0.93;;;;;;;14.63;70.53;101087.81;5110511;28;20100;-76
2022/07/05 01:19:45;;;;;;;3.70;0.95;;;;;;;14.77;70.33;101090.47;5110607;28;20070;-76
2022/07/05 01:22:56;;;;;;;4.82;1.05;;;;;;;14.51;70.72;101091.19;5110274;28;20482;-76
2022/07/05 01:26:01;;;;;;;3.13;0.80;;;;;;;14.63;70.29;101096.56;5097621;28;20135;-77
2022/07/05 01:29:06;;;;;;;3.92;0.70;;;;;;;14.63;70.19;101083.41;5110245;28;20046;-77
2022/07/05 01:32:11;;;;;;;2.72;1.00;;;;;;;14.89;69.14;101083.59;5109141;28;20127;-76
2022/07/05 01:35:23;;;;;;;4.70;0.90;;;;;;;14.83;68.60;101086.59;5102342;28;20046;-77
2022/07/05 01:38:26;;;;;;;3.25;1.00;;;;;;;15.09;67.78;101080.59;5088441;28;20109;-76
2022/07/05 01:41:29;;;;;;;2.38;0.73;;;;;;;14.70;69.04;101085.66;5096214;28;20100;-76
2022/07/05 01:44:33;;;;;;;3.53;1.05;;;;;;;14.49;69.69;101085.16;5089923;28;20494;-77
2022/07/05 01:47:44;;;;;;;4.32;1.05;;;;;;;14.81;68.22;101080.59;5088686;28;20047;-77
2022/07/05 01:51:01;;;;;;;4.80;0.90;;;;;;;14.43;69.91;101087.19;5089106;28;20109;-77
2022/07/05 01:54:06;;;;;;;6.07;0.90;;;;;;;14.35;70.63;101085.94;5099083;28;20042;-75
2022/07/05 01:57:11;;;;;;;2.15;0.80;;;;;;;14.46;69.95;101086.19;5109799;28;20523;-75
2022/07/05 02:00:15;;;;;;;2.67;0.98;;;;;;;14.62;69.59;101081.72;5108417;28;20101;-76
2022/07/05 02:03:18;;;;;;;3.70;0.82;;;;;;;14.60;69.92;101085.38;5108955;28;20087;-76
2022/07/05 02:06:22;;;;;;;6.95;1.08;;;;;;;14.27;70.78;101089.03;5110159;28;20543;-76
2022/07/05 02:09:25;;;;;;;2.92;0.90;;;;;;;14.54;69.79;101093.63;5096769;28;20046;-76
2022/07/05 02:12:30;;;;;;;5.05;1.23;;;;;;;14.24;70.77;101088.38;5096843;28;20429;-76
2022/07/05 02:15:37;;;;;;;3.10;1.08;;;;;;;14.09;71.19;101098.00;5109068;28;20070;-76
2022/07/05 02:18:41;;;;;;;7.10;1.15;;;;;;;14.23;70.73;101095.44;5096179;28;20138;-76
2022/07/05 02:21:45;;;;;;;4.22;1.38;;;;;;;14.37;70.06;101087.56;5095547;28;20051;-76
2022/07/05 02:24:53;;;;;;;2.20;0.70;;;;;;;14.60;69.01;101088.84;5095852;28;20476;-76
2022/07/05 02:28:01;;;;;;;5.13;0.80;;;;;;;14.59;68.18;101094.22;5107339;28;20531;-76
2022/07/05 02:31:05;;;;;;;5.22;1.20;;;;;;;14.48;68.68;101088.69;5107335;28;20072;-76
2022/07/05 02:34:08;;;;;;;4.32;1.00;;;;;;;14.13;69.57;101092.47;5108552;28;20039;-76
2022/07/05 02:37:11;;;;;;;2.70;0.80;;;;;;;14.27;69.16;101096.09;5104542;28;20137;-76
2022/07/05 02:40:14;;;;;;;3.90;0.93;;;;;;;14.09;69.81;101090.94;5107797;28;20042;-76
2022/07/05 02:43:23;;;;;;;5.10;1.08;;;;;;;14.03;70.15;101093.94;5108525;28;20515;-76
2022/07/05 02:46:28;;;;;;;3.80;1.08;;;;;;;13.88;70.85;101102.69;5107052;28;20132;-76
2022/07/05 02:49:34;;;;;;;6.35;1.30;;;;;;;13.87;71.15;101093.97;5107302;28;20046;-76
2022/07/05 02:52:39;;;;;;;2.92;1.02;;;;;;;13.78;71.26;101098.91;5107405;28;20577;-75
2022/07/05 02:55:43;;;;;;;1.95;0.90;;;;;;;13.92;70.78;101094.56;5108161;28;20178;-75
2022/07/05 02:58:46;;;;;;;2.65;1.08;;;;;;;13.78;71.03;101109.41;5108271;28;20569;-76
2022/07/05 03:01:50;;;;;;;2.42;0.93;;;;;;;13.53;71.93;101102.03;5107757;28;20619;-77
2022/07/05 03:04:54;;;;;;;4.82;1.10;;;;;;;13.79;70.80;101103.25;5105805;28;20038;-76
2022/07/05 03:07:58;;;;;;;3.20;0.70;;;;;;;13.62;71.72;101105.00;5106690;28;20066;-76
2022/07/05 03:11:02;;;;;;;2.60;0.90;;;;;;;13.43;72.56;101107.84;5106708;28;20051;-76
2022/07/05 03:14:06;;;;;;;3.90;1.05;;;;;;;13.54;71.81;101114.28;5107871;28;20043;-76
2022/07/05 03:17:09;;;;;;;10.10;0.80;;;;;;;13.33;72.70;101113.66;5108003;28;20413;-76
2022/07/05 03:20:12;;;;;;;;;;;;;;;13.55;71.99;101108.06;5108311;28;20082;-77
2022/07/05 03:23:15;;;;;;;6.80;1.42;;;;;;;14.04;70.33;101111.44;5107071;28;19919;-76
2022/07/05 03:26:25;;;;;;;3.38;1.10;;;;;;;13.75;70.83;101114.84;5107952;28;20124;-76
2022/07/05 03:29:30;;;;;;;5.10;1.10;;;;;;;13.69;70.75;101122.16;5107732;28;20045;-76
2022/07/05 03:32:33;;;;;;;4.82;0.90;;;;;;;13.60;70.87;101120.03;5106240;28;20050;-77
2022/07/05 03:35:38;;;;;;;2.92;1.10;;;;;;;13.41;71.87;101121.97;5106967;28;20050;-76
2022/07/05 03:38:41;;;;;;;3.78;0.70;;;;;;;13.53;71.79;101116.06;5107974;28;20454;-76
2022/07/05 03:41:45;;;;;;;3.53;0.93;;;;;;;13.75;70.43;101114.84;5107332;28;20069;-76
2022/07/05 03:44:53;;;;;;;2.97;1.00;;;;;;;13.48;71.62;101123.34;5087523;28;20038;-77
2022/07/05 03:47:58;;;;;;;2.83;1.10;;;;;;;13.53;71.39;101126.56;5094587;28;20092;-76
2022/07/05 03:51:02;;;;;;;2.72;1.08;;;;;;;13.20;72.78;101124.78;5106830;28;20034;-76
2022/07/05 03:54:05;;;;;;;3.33;1.27;;;;;;;13.23;72.73;101126.41;5107567;28;20081;-76
2022/07/05 03:57:09;;;;;;;5.00;0.90;;;;;;;13.33;72.42;101130.25;5106466;28;20308;-76
2022/07/05 04:00:13;;;;;;;2.58;0.80;;;;;;;13.49;71.86;101125.84;5095964;28;20122;-76
2022/07/05 04:03:22;;;;;;;5.13;1.05;;;;;;;13.59;71.46;101125.34;5106970;28;20439;-79
2022/07/05 04:06:27;;;;;;;6.03;1.10;;;;;;;13.77;70.21;101126.97;5092491;28;20043;-79
2022/07/05 04:09:31;;;;;;;3.22;1.00;;;;;;;13.92;69.74;101130.53;5087228;28;20069;-76
2022/07/05 04:12:34;;;;;;;2.92;1.15;;;;;;;13.51;71.59;101123.16;5082524;28;20054;-81
2022/07/05 04:15:38;;;;;;;5.15;1.25;;;;;;;13.61;71.65;101129.59;5106610;28;20125;-78
2022/07/05 04:18:43;;;;;;;3.55;0.93;;;;;;;13.75;71.37;101125.34;5106592;28;20420;-79
2022/07/05 04:21:48;;;;;;;3.65;0.77;;;;;;;13.82;70.65;101131.97;5107087;28;20432;-78
2022/07/05 04:28:15;;;;;;;2.63;0.90;;;;;;;13.70;70.70;101139.59;5107582;28;20085;-78
2022/07/05 04:31:20;;;;;;;3.88;1.15;;;;;;;13.60;71.18;101143.69;5106291;28;20108;-79
2022/07/05 04:34:28;;;;;;;3.47;1.25;;;;;;;13.55;71.82;101144.84;5106216;28;20042;-75
2022/07/05 04:37:31;;;;;;;3.60;1.05;;;;;;;13.90;70.07;101145.53;5107992;28;20070;-75
2022/07/05 04:40:36;;;;;;;4.40;0.77;;;;;;;13.76;70.44;101148.09;5108580;28;20108;-77
2022/07/05 04:43:40;;;;;;;3.90;0.88;;;;;;;13.97;70.08;101154.75;5081464;28;20134;-78
2022/07/05 04:46:46;;;;;;;6.18;1.25;;;;;;;13.91;69.88;101160.34;5104639;28;20034;-78
2022/07/05 04:49:50;;;;;;;2.55;0.77;;;;;;;13.97;69.58;101157.38;5108500;28;20557;-78
2022/07/05 04:52:54;;;;;;;4.10;0.98;;;;;;;14.06;69.49;101162.13;5096238;28;20039;-78
2022/07/05 04:55:58;;;;;;;4.10;1.30;;;;;;;14.02;69.67;101155.34;5108267;28;20092;-78
2022/07/05 04:59:02;;;;;;;2.65;1.17;;;;;;;14.07;69.96;101158.59;5109057;28;20065;-78
2022/07/05 05:02:06;;;;;;;2.85;0.90;;;;;;;13.91;70.48;101158.59;5111506;28;20088;-78
2022/07/05 05:05:09;;;;;;;4.70;1.30;;;;;;;13.94;70.78;101162.81;5110680;28;20039;-70
2022/07/05 05:08:12;;;;;;;7.78;1.90;;;;;;;13.72;71.62;101164.03;5110739;28;20512;-71
2022/07/05 05:11:15;;;;;;;4.15;1.92;;;;;;;13.80;71.57;101163.59;5109567;28;20050;-71
2022/07/05 05:14:35;;;;;;;5.22;1.65;;;;;;;13.90;71.07;101161.31;5109448;28;20576;-71
2022/07/05 05:17:40;;;;;;;3.33;1.20;;;;;;;13.90;71.56;101163.94;5110710;28;20099;-71
2022/07/05 05:20:43;;;;;;;1.92;0.82;;;;;;;13.86;71.95;101162.41;5110116;28;20424;-71
2022/07/05 05:23:47;;;;;;;1.90;0.73;;;;;;;13.95;71.84;101161.91;5107477;28;20564;-71
2022/07/05 05:26:52;;;;;;;2.30;0.80;;;;;;;13.78;72.44;101159.34;5089962;28;20043;-71
2022/07/05 05:29:56;;;;;;;2.40;1.05;;;;;;;14.05;72.05;101163.06;5090366;28;20361;-71
2022/07/05 05:32:59;;;;;;;5.03;1.00;;;;;;;14.12;71.89;101161.78;5090287;28;20417;-71
2022/07/05 05:36:03;;;;;;;2.50;0.98;;;;;;;14.16;71.98;101163.28;5089235;28;20098;-71
2022/07/05 05:39:06;;;;;;;2.45;0.90;;;;;;;14.29;71.67;101166.06;5089318;28;20097;-71
2022/07/05 05:42:10;;;;;;;2.55;0.93;;;;;;;14.30;71.71;101170.41;5095007;28;20551;-70
2022/07/05 05:45:13;;;;;;;2.72;0.80;;;;;;;14.47;71.04;101177.31;5110081;28;20062;-71
2022/07/05 05:48:18;;;;;;;4.45;1.10;;;;;;;14.50;70.78;101178.94;5110339;28;20092;-70
2022/07/05 05:51:21;;;;;;;4.68;0.90;;;;;;;14.68;70.42;101179.66;5110335;28;20176;-70
2022/07/05 05:54:25;;;;;;;4.03;1.08;;;;;;;14.77;70.89;101180.00;5107932;28;20118;-71
2022/07/05 05:57:28;;;;;;;4.32;1.23;;;;;;;14.92;70.50;101182.63;5108293;28;20050;-71
2022/07/05 06:00:31;;;;;;;3.17;1.10;;;;;;;14.88;70.72;101176.69;5108522;28;20054;-71
2022/07/05 06:03:34;;;;;;;7.95;2.03;;;;;;;14.92;70.50;101180.84;5109132;28;20083;-71
2022/07/05 06:06:38;;;;;;;4.18;1.00;;;;;;;14.79;71.36;101179.88;5109310;28;20054;-72
2022/07/05 06:09:41;;;;;;;3.85;1.25;;;;;;;14.99;70.50;101179.53;5110159;28;20468;-71
2022/07/05 06:12:45;;;;;;;5.35;1.20;;;;;;;15.20;70.60;101181.81;5109174;28;20043;-71
2022/07/05 06:15:49;;;;;;;5.35;1.13;;;;;;;15.23;70.56;101189.53;5109724;28;20066;-71
2022/07/05 06:18:52;;;;;;;5.75;1.17;;;;;;;15.39;70.39;101182.38;5108806;28;20116;-72
2022/07/05 06:21:56;;;;;;;5.18;1.17;;;;;;;15.52;70.32;101178.03;5109280;28;20066;-72
2022/07/05 06:24:59;;;;;;;6.05;1.23;;;;;;;15.74;69.90;101187.25;5108896;28;20035;-71
2022/07/05 06:28:05;;;;;;;6.05;1.23;;;;;;;15.92;69.51;101179.94;5109538;28;20051;-71
2022/07/05 06:31:08;;;;;;;2.15;0.90;;;;;;;15.99;69.29;101183.91;5109320;28;20038;-71
2022/07/05 06:34:12;;;;;;;6.80;1.20;;;;;;;16.23;68.90;101190.22;5108761;28;20601;-73
2022/07/05 06:37:16;;;;;;;5.65;1.10;;;;;;;16.46;69.16;101191.34;5109540;28;20096;-73
2022/07/05 06:40:22;;;;;;;6.90;1.38;;;;;;;16.63;68.42;101184.09;5109302;28;20046;-69
2022/07/05 06:43:25;;;;;;;4.43;1.17;;;;;;;16.74;67.43;101182.41;5109347;28;20038;-69
2022/07/05 06:46:32;;;;;;;3.92;1.10;;;;;;;16.92;66.34;101180.34;5104742;28;20093;-68
2022/07/05 06:49:36;;;;;;;6.05;1.40;;;;;;;17.07;66.13;101185.50;5109473;28;20144;-69
2022/07/05 06:52:40;;;;;;;5.90;1.55;;;;;;;17.14;65.00;101181.53;5108888;28;20084;-71
2022/07/05 06:55:46;;;;;;;4.55;1.92;;;;;;;17.24;64.44;101177.28;5107730;28;20147;-72
2022/07/05 06:58:49;;;;;;;9.65;1.90;;;;;;;17.37;64.00;101171.97;5109310;28;20120;-71
2022/07/05 07:01:53;;;;;;;7.35;1.70;;;;;;;17.43;63.76;101172.38;5109500;28;20511;-70
2022/07/05 07:04:56;;;;;;;4.18;1.30;;;;;;;17.53;63.42;101180.50;5109456;28;20046;-70
2022/07/05 07:11:22;;;;;;;5.88;1.65;;;;;;;17.73;62.83;101172.94;5107359;28;20043;-72
2022/07/05 07:14:25;;;;;;;5.55;1.50;;;;;;;17.76;62.86;101170.09;5107931;28;20047;-71
2022/07/05 07:17:31;;;;;;;8.00;1.55;;;;;;;17.81;62.37;101168.84;5108546;28;20101;-84
2022/07/05 07:20:35;;;;;;;4.03;1.63;;;;;;;17.93;62.63;101171.53;5108861;28;20058;-84
2022/07/05 07:23:44;;;;;;;3.97;1.42;;;;;;;18.01;62.25;101162.09;5108467;28;20686;-87
2022/07/05 07:27:04;;;;;;;5.43;1.58;;;;;;;18.05;61.98;101166.19;5085198;28;20050;-86
2022/07/05 07:30:11;;;;;;;7.03;1.80;;;;;;;18.22;62.01;101170.25;5108192;28;20042;-87
2022/07/05 07:33:17;;;;;;;6.60;1.40;;;;;;;18.28;61.83;101161.00;5108572;28;20081;-86
2022/07/05 07:36:20;;;;;;;3.78;1.30;;;;;;;18.39;60.80;101160.22;5107924;28;20108;-77
2022/07/05 07:39:25;;;;;;;4.10;1.60;;;;;;;18.52;60.53;101171.56;5108518;28;20460;-73
2022/07/05 07:42:31;;;;;;;6.00;1.83;;;;;;;18.63;60.27;101171.56;5108611;28;20456;-76
2022/07/05 07:45:35;;;;;;;6.72;1.80;;;;;;;18.70;59.73;101170.16;5108183;28;20050;-74
2022/07/05 07:48:39;;;;;;;6.95;1.60;;;;;;;18.69;59.64;101163.16;5091448;28;20050;-73
2022/07/05 07:51:42;;;;;;;10.63;1.55;;;;;;;18.92;59.63;101172.06;5099742;28;20108;-74
2022/07/05 07:54:45;;;;;;;13.35;2.50;;;;;;;18.98;59.50;101168.91;5107693;28;20057;-75
2022/07/05 07:57:49;;;;;;;10.10;1.50;;;;;;;19.09;58.95;101167.25;5108904;28;20591;-84
2022/07/05 08:00:53;;;;;;;8.73;1.40;;;;;;;19.23;59.00;101174.94;5108372;28;20428;-71
2022/07/05 08:03:57;;;;;;;6.22;1.27;;;;;;;19.44;57.95;101164.47;5107930;28;20080;-72
2022/07/05 08:07:03;;;;;;;5.43;1.70;;;;;;;19.49;58.80;101162.28;5086447;28;20127;-73
2022/07/05 08:10:09;;;;;;;4.40;1.45;;;;;;;19.52;58.71;101162.88;5086896;28;20113;-72
2022/07/05 08:13:12;;;;;;;3.97;1.35;;;;;;;19.79;58.54;101163.50;5087164;28;20083;-72
2022/07/05 08:16:15;;;;;;;3.38;1.42;;;;;;;19.78;57.47;101164.44;5087380;28;20520;-72
2022/07/05 08:22:42;;;;;;;4.13;1.42;;;;;;;19.76;57.71;101158.44;5107758;28;20046;-70
2022/07/05 08:25:46;;;;;;;4.18;1.48;;;;;;;19.83;57.45;101149.00;5110520;28;20100;-71
2022/07/05 08:28:49;;;;;;;4.43;1.08;;;;;;;19.85;56.86;101147.06;5112197;28;20074;-71
2022/07/05 08:31:53;;;;;;;6.25;1.40;;;;;;;19.88;57.23;101144.16;5111808;28;20081;-71
2022/07/05 08:34:56;;;;;;;3.83;1.20;;;;;;;20.05;57.84;101138.31;5111090;28;20057;-71
2022/07/05 08:38:00;;;;;;;3.75;1.40;;;;;;;20.30;56.52;101141.59;5111325;28;20053;-71
2022/07/05 08:41:09;;;;;;;9.68;1.50;;;;;;;20.25;55.96;101144.63;5111255;28;20128;-71
2022/07/05 08:44:16;;;;;;;5.68;1.58;;;;;;;20.42;55.62;101140.53;5109639;28;20100;-71
2022/07/05 08:47:21;;;;;;;7.00;1.88;;;;;;;20.77;54.49;101144.72;5110960;28;20191;-71
2022/07/05 08:50:26;;;;;;;6.45;1.67;;;;;;;20.90;53.12;101140.06;5110305;28;20412;-72
2022/07/05 08:53:30;;;;;;;5.95;1.52;;;;;;;20.82;51.74;101139.84;5110774;28;20124;-74
2022/07/05 08:56:35;;;;;;;6.45;1.58;;;;;;;21.10;52.28;101135.66;5111233;28;20100;-72
2022/07/05 08:59:41;;;;;;;4.18;1.70;;;;;;;21.15;51.94;101136.09;5110636;28;20059;-70
2022/07/05 09:02:45;;;;;;;7.13;1.50;;;;;;;21.06;51.50;101137.75;5109808;28;20074;-71
2022/07/05 09:05:56;;;;;;;5.60;1.80;;;;;;;21.36;50.51;101136.91;5109335;28;20043;-71
2022/07/05 09:09:02;;;;;;;5.68;1.70;;;;;;;21.31;49.61;101143.56;5091763;28;20071;-72
2022/07/05 09:12:07;;;;;;;5.22;1.67;;;;;;;21.38;49.84;101136.78;5100224;28;20038;-70
2022/07/05 09:15:11;;;;;;;5.15;1.92;;;;;;;21.23;50.17;101130.94;5109589;28;20729;-85
2022/07/05 09:18:43;;;;;;;4.90;1.40;;;;;;;21.47;49.15;101133.28;5107471;28;20091;-81
2022/07/05 09:22:03;;;;;;;6.90;1.30;;;;;;;21.29;48.95;101137.56;5110656;28;20413;-84
2022/07/05 09:25:18;;;;;;;6.00;1.55;;;;;;;21.18;48.97;101140.31;5109768;28;20117;-84
2022/07/05 09:28:24;;;;;;;7.05;1.60;;;;;;;21.21;48.13;101137.38;5110522;28;20123;-75
2022/07/05 09:31:49;;;;;;;5.35;1.42;;;;;;;21.11;45.80;101132.84;5109465;28;20096;-74
2022/07/05 09:35:20;;;;;;;3.88;1.70;;;;;;;21.19;46.51;101131.38;5109011;28;20047;-73
2022/07/05 09:38:26;;;;;;;4.68;1.35;;;;;;;21.28;47.03;101134.06;5109123;28;20604;-74
2022/07/05 09:41:30;;;;;;;5.82;1.83;;;;;;;21.31;44.92;101139.13;5109901;28;20047;-76
2022/07/05 09:44:41;;;;;;;4.22;0.95;;;;;;;21.29;42.83;101135.72;5109655;28;20058;-75
2022/07/05 09:47:46;;;;;;;4.47;0.90;;;;;;;21.62;43.23;101131.09;5109773;28;20457;-76
2022/07/05 09:50:51;;;;;;;4.03;1.30;;;;;;;21.64;43.05;101136.28;5109725;28;20698;-74
2022/07/05 09:53:55;;;;;;;5.95;1.20;;;;;;;21.66;43.12;101129.81;5089578;28;20069;-73
2022/07/05 09:57:00;;;;;;;10.60;1.30;;;;;;;21.54;43.63;101141.59;5089327;28;20063;-74
2022/07/05 10:00:15;;;;;;;2.78;0.75;;;;;;;21.63;42.57;101137.25;5098913;28;20066;-73
2022/07/05 10:03:19;;;;;;;3.97;0.85;;;;;;;21.58;43.63;101135.84;5109296;28;20034;-76
2022/07/05 10:06:25;;;;;;;8.50;1.55;;;;;;;21.58;44.02;101138.50;5109597;28;20051;-75
2022/07/05 10:09:28;;;;;;;3.42;1.40;;;;;;;21.50;44.23;101135.66;5091124;28;20104;-74
2022/07/05 10:12:35;;;;;;;4.05;1.10;;;;;;;21.49;43.77;101131.34;5090270;28;20039;-74
2022/07/05 10:15:40;;;;;;;4.18;1.30;;;;;;;21.88;43.04;101134.06;5108620;28;20062;-75
2022/07/05 10:18:54;;;;;;;4.63;0.95;;;;;;;21.87;41.00;101135.06;5108899;28;20131;-73
2022/07/05 10:21:59;;;;;;;3.92;1.17;;;;;;;21.77;42.00;101134.22;5109336;28;20112;-73
2022/07/05 10:25:03;;;;;;;3.45;1.27;;;;;;;21.85;42.13;101131.69;5108835;28;20050;-72
2022/07/05 10:28:15;;;;;;;5.47;1.40;;;;;;;21.98;42.14;101121.59;5107360;28;20096;-73
2022/07/05 10:31:19;;;;;;;5.63;1.08;;;;;;;22.28;43.20;101127.81;5108910;28;20039;-74
2022/07/05 10:34:25;;;;;;;3.92;1.20;;;;;;;22.25;42.72;101136.09;5108963;28;20442;-75
2022/07/05 10:37:32;;;;;;;3.53;1.13;;;;;;;22.06;42.45;101127.06;5108062;28;20088;-70
2022/07/05 10:40:42;;;;;;;3.13;1.40;;;;;;;22.11;42.33;101121.31;5109061;28;20081;-75
2022/07/05 10:43:52;;;;;;;7.35;1.23;;;;;;;;;;5108831;28;20459;-74
2022/07/05 10:47:10;;;;;;;4.75;1.20;;;;;;;22.68;39.44;101126.75;5109092;28;20046;-75
2022/07/05 10:50:15;;;;;;;5.00;1.10;;;;;;;22.82;38.32;101120.97;5108837;28;20115;-75
2022/07/05 10:53:22;;;;;;;4.43;1.30;;;;;;;22.87;38.32;101116.03;5109015;28;20042;-74
2022/07/05 10:56:25;;;;;;;3.20;0.95;;;;;;;23.04;38.02;101121.59;5109278;28;20417;-75
2022/07/05 11:00:05;;;;;;;4.38;1.10;;;;;;;22.82;38.83;101112.97;5109687;28;20405;-75
2022/07/05 11:03:35;;;;;;;4.55;1.33;;;;;;;22.97;39.28;101119.53;5109498;28;20049;-76
2022/07/05 11:06:38;;;;;;;5.20;1.15;;;;;;;23.13;38.75;101118.06;5109185;28;20047;-75
2022/07/05 11:10:07;;;;;;;6.57;1.05;;;;;;;23.15;38.87;101106.25;5109430;28;20085;-75
2022/07/05 11:13:50;;;;;;;4.93;1.20;;;;;;;23.23;39.60;101102.88;5088870;28;20516;-74
2022/07/05 11:17:22;;;;;;;3.17;1.05;;;;;;;23.47;39.94;101109.47;5087929;28;20414;-75
2022/07/05 11:20:32;;;;;;;2.50;0.90;;;;;;;23.21;39.52;101104.84;5088766;28;20078;-75
2022/07/05 11:23:38;;;;;;;4.20;1.20;;;;;;;22.93;40.58;101111.94;5088043;28;20176;-74
2022/07/05 11:26:47;;;;;;;6.55;1.30;;;;;;;22.67;40.16;101098.41;5104172;28;20177;-73
2022/07/05 11:29:55;;;;;;;3.58;1.13;;;;;;;22.83;40.36;101105.81;5109506;28;20042;-74
2022/07/05 11:32:59;;;;;;;5.25;1.55;;;;;;;23.27;39.75;101098.06;5108904;28;20050;-74
2022/07/05 11:36:06;;;;;;;3.53;1.30;;;;;;;23.14;39.53;101085.91;5109944;28;20173;-74
2022/07/05 11:39:16;;;;;;;5.00;1.50;;;;;;;23.75;40.34;101087.09;5109347;28;20045;-75
2022/07/05 11:42:21;;;;;;;3.80;1.08;;;;;;;23.74;39.29;101098.78;5109670;28;20462;-74
2022/07/05 11:45:25;;;;;;;6.13;1.83;;;;;;;23.70;38.22;101089.38;5109386;28;20050;-74
2022/07/05 11:48:29;;;;;;;3.65;1.42;;;;;;;23.64;38.94;101080.13;5108723;28;20038;-74
2022/07/05 11:51:33;;;;;;;4.20;1.55;;;;;;;23.37;40.72;101088.19;5108961;28;20050;-74
2022/07/05 11:54:37;;;;;;;6.50;1.20;;;;;;;23.19;40.83;101090.78;5108055;28;20043;-73
2022/07/05 11:57:50;;;;;;;5.53;1.30;;;;;;;23.16;41.20;101089.25;5109934;28;20050;-74
2022/07/05 12:00:56;;;;;;;4.07;1.63;;;;;;;23.04;40.79;101085.13;5112976;28;20535;-74
2022/07/05 12:04:03;;;;;;;5.40;1.27;;;;;;;22.93;41.23;101085.28;5113104;28;20042;-74
2022/07/05 12:07:06;;;;;;;4.25;1.60;;;;;;;23.07;39.84;101081.28;5113033;28;20518;-75
2022/07/05 12:13:50;;;;;;;3.72;1.27;;;;;;;23.54;39.22;101073.16;5112127;28;20093;-76
2022/07/05 12:17:30;;;;;;;3.87;0.93;;;;;;;23.52;39.85;101068.00;5112823;28;20050;-86
2022/07/05 12:20:37;;;;;;;3.95;1.00;;;;;;;23.53;40.56;101061.66;5112952;28;20273;-80
2022/07/05 12:23:44;;;;;;;5.82;1.30;;;;;;;23.40;40.54;101056.69;5112556;28;20616;-81
2022/07/05 12:26:50;;;;;;;3.70;1.58;;;;;;;23.28;41.47;101063.22;5112774;28;20096;-88
2022/07/05 12:29:58;;;;;;;8.65;1.25;;;;;;;23.57;39.18;101059.53;5112376;28;20042;-85
2022/07/05 12:33:12;;;;;;;6.57;1.30;;;;;;;23.97;38.70;101052.91;5112449;28;20437;-83
2022/07/05 12:36:18;;;;;;;4.53;1.23;;;;;;;24.03;39.44;101052.31;5111936;28;20054;-83
2022/07/05 12:39:31;;;;;;;2.67;1.15;;;;;;;24.03;38.03;101046.97;5090759;28;20038;-82
2022/07/05 12:42:39;;;;;;;;;;;;;;;23.96;38.33;101036.03;5090499;28;20055;-84
2022/07/05 12:45:58;;;;;;;4.10;1.20;;;;;;;24.36;37.18;101043.50;5090395;28;19923;-81
2022/07/05 12:49:02;;;;;;;4.88;1.38;;;;;;;24.60;36.88;101036.66;5091365;28;20440;-80
2022/07/05 12:52:06;;;;;;;4.75;1.40;;;;;;;24.53;37.32;101038.28;5100326;28;20050;-81
2022/07/05 12:58:31;;;;;;;5.65;1.20;;;;;;;24.94;38.19;101031.28;5111480;28;20066;-82
2022/07/05 13:01:42;;;;;;;6.40;1.45;;;;;;;25.60;37.22;101035.00;5111338;28;20292;-80
2022/07/05 13:04:54;;;;;;;3.35;1.45;;;;;;;25.24;36.20;101037.13;5111623;28;20088;-82
2022/07/05 13:07:59;;;;;;;;;;;;;;;25.80;35.02;101034.69;5091028;28;20202;-80
2022/07/05 13:11:03;;;;;;;7.15;1.73;;;;;;;26.12;35.82;101023.97;5090960;28;19918;-79
2022/07/05 13:14:07;;;;;;;7.55;1.35;;;;;;;26.54;35.00;101024.75;5090476;28;20043;-82
2022/07/05 13:17:13;;;;;;;5.00;1.73;;;;;;;26.86;34.09;101035.34;5092431;28;20043;-80
2022/07/05 13:20:20;;;;;;;5.53;1.50;;;;;;;26.49;34.97;101030.63;5110576;28;20181;-85
2022/07/05 13:23:23;;;;;;;4.43;1.38;;;;;;;25.97;35.18;101033.69;5109978;28;20062;-81
2022/07/05 13:26:26;;;;;;;7.25;1.40;;;;;;;24.67;37.26;101040.38;5110144;28;20065;-83
2022/07/05 13:29:30;;;;;;;4.03;1.20;;;;;;;25.14;36.82;101042.59;5105063;28;20054;-83
2022/07/05 13:32:36;;;;;;;3.38;1.20;;;;;;;25.31;37.81;101038.13;5109667;28;20466;-78
2022/07/05 13:35:40;;;;;;;3.75;1.45;;;;;;;24.96;37.04;101049.88;5110512;28;20053;-81
2022/07/05 13:38:44;;;;;;;4.40;1.60;;;;;;;24.47;38.11;101054.97;5109842;28;20065;-82
2022/07/05 13:41:49;;;;;;;4.20;1.35;;;;;;;24.66;38.54;101049.38;5109096;28;20118;-79
2022/07/05 13:45:04;;;;;;;3.13;1.30;;;;;;;24.49;38.16;101050.31;5109505;28;20623;-80
2022/07/05 13:48:11;;;;;;;3.13;1.45;;;;;;;25.56;36.75;101049.72;5090931;28;20131;-81
2022/07/05 13:51:14;;;;;;;6.47;1.50;;;;;;;26.28;33.93;101049.91;5090428;28;20066;-78
2022/07/05 13:54:18;;;;;;;6.40;1.35;;;;;;;26.43;34.06;101044.69;5089232;28;20540;-76
2022/07/05 13:57:22;;;;;;;6.57;1.38;;;;;;;27.34;32.56;101056.78;5089411;28;20079;-77
2022/07/05 14:00:25;;;;;;;6.28;1.55;;;;;;;27.17;32.27;101041.78;5088417;28;20111;-78
2022/07/05 14:03:29;;;;;;;4.55;1.30;;;;;;;25.26;35.33;101035.94;5108645;28;20046;-80
2022/07/05 14:06:42;;;;;;;7.32;1.90;;;;;;;27.39;31.95;101042.84;5110180;28;20675;-87
2022/07/05 14:09:46;;;;;;;4.75;2.13;;;;;;;27.86;32.54;101031.94;5109446;28;20050;-81
2022/07/05 14:12:50;;;;;;;3.63;1.17;;;;;;;26.57;33.87;101030.59;5108891;28;20073;-78
2022/07/05 14:15:53;;;;;;;10.27;1.65;;;;;;;28.57;30.52;101026.22;5109135;28;20051;-78
2022/07/05 14:18:57;;;;;;;5.50;1.40;;;;;;;29.39;29.15;101015.25;5108051;28;20124;-79
2022/07/05 14:22:29;;;;;;;4.70;1.42;;;;;;;30.17;26.11;101032.31;5108136;28;20065;-79
2022/07/05 14:25:32;;;;;;;4.35;1.05;;;;;;;28.32;30.11;101037.22;5109860;28;20258;-79
2022/07/05 14:28:35;;;;;;;3.10;1.50;;;;;;;29.12;29.64;101024.88;5109202;28;20459;-78
2022/07/05 14:31:39;;;;;;;4.43;1.30;;;;;;;31.86;25.59;101021.75;5108185;28;20083;-76
2022/07/05 14:34:42;;;;;;;4.97;1.08;;;;;;;29.89;26.90;101024.19;5108425;28;20050;-77
2022/07/05 14:37:45;;;;;;;3.75;1.10;;;;;;;28.20;30.50;101033.28;5108127;28;20070;-79
2022/07/05 14:40:48;;;;;;;10.77;1.33;;;;;;;28.28;29.28;101041.28;5108783;28;20408;-78
2022/07/05 14:43:53;;;;;;;2.75;0.70;;;;;;;29.85;26.38;101018.38;5108549;28;20058;-84
2022/07/05 14:46:57;;;;;;;5.75;1.15;;;;;;;27.17;31.42;101028.38;5107263;28;20058;-80